createdAt,value
2018-10-18T00:00:11.331Z,19.22
2018-10-18T00:02:53.543Z,18.97
2018-10-18T00:05:43.682Z,18.97
2018-10-18T00:08:19.288Z,19.03
2018-10-18T00:10:54.935Z,19.11
2018-10-18T00:13:30.940Z,19.47
2018-10-18T00:16:06.551Z,19.33
2018-10-18T00:18:42.167Z,18.97
2018-10-18T00:21:18.204Z,19.05
2018-10-18T00:23:53.752Z,19.15
2018-10-18T00:26:29.364Z,19.05
2018-10-18T00:29:05.451Z,18.89
2018-10-18T00:31:40.969Z,18.79
2018-10-18T00:34:16.530Z,18.63
2018-10-18T00:36:52.122Z,18.43
2018-10-18T00:39:27.858Z,18.57
2018-10-18T00:42:03.653Z,18.86
2018-10-18T00:44:39.368Z,18.46
2018-10-18T00:47:14.937Z,19.30
2018-10-18T00:49:50.797Z,19.31
2018-10-18T00:52:26.318Z,19.40
2018-10-18T00:55:02.049Z,18.48
2018-10-18T00:57:37.751Z,19.18
2018-10-18T01:03:09.948Z,18.53
2018-10-18T01:05:45.537Z,18.41
2018-10-18T01:08:21.348Z,18.54
2018-10-18T01:10:56.994Z,18.93
2018-10-18T01:13:32.475Z,19.27
2018-10-18T01:16:08.228Z,19.41
2018-10-18T01:18:44.081Z,19.16
2018-10-18T01:21:19.883Z,19.08
2018-10-18T01:23:55.530Z,18.93
2018-10-18T01:26:31.440Z,18.56
2018-10-18T01:29:07.108Z,18.52
2018-10-18T01:31:42.702Z,18.31
2018-10-18T01:34:18.490Z,17.53
2018-10-18T01:36:54.013Z,17.38
2018-10-18T01:39:30.128Z,17.75
2018-10-18T01:42:06.554Z,17.94
2018-10-18T01:44:42.127Z,17.86
2018-10-18T01:47:18.029Z,17.62
2018-10-18T01:49:53.519Z,17.11
2018-10-18T01:52:29.222Z,16.76
2018-10-18T01:55:05.918Z,16.88
2018-10-18T01:57:41.349Z,16.77
2018-10-18T02:00:29.386Z,16.86
2018-10-18T02:03:05.118Z,16.87
2018-10-18T02:05:41.856Z,16.85
2018-10-18T02:08:17.558Z,17.07
2018-10-18T02:10:53.189Z,17.09
2018-10-18T02:13:28.815Z,16.94
2018-10-18T02:16:05.257Z,16.91
2018-10-18T02:18:40.633Z,17.05
2018-10-18T02:21:16.302Z,17.27
2018-10-18T02:23:52.220Z,17.31
2018-10-18T02:26:27.914Z,17.31
2018-10-18T02:29:03.746Z,17.29
2018-10-18T02:31:39.104Z,17.19
2018-10-18T02:34:14.832Z,17.36
2018-10-18T02:36:50.543Z,17.31
2018-10-18T02:39:25.988Z,16.91
2018-10-18T02:42:02.507Z,16.90
2018-10-18T02:44:38.253Z,16.40
2018-10-18T02:47:13.810Z,16.28
2018-10-18T02:49:49.407Z,16.31
2018-10-18T02:52:25.340Z,16.21
2018-10-18T02:55:01.075Z,16.38
2018-10-18T02:57:36.612Z,16.39
2018-10-18T03:03:02.032Z,16.58
2018-10-18T03:05:37.555Z,16.42
2018-10-18T03:08:12.884Z,16.34
2018-10-18T03:10:48.629Z,16.14
2018-10-18T03:13:31.243Z,16.07
2018-10-18T03:16:08.218Z,16.09
2018-10-18T03:18:44.029Z,15.98
2018-10-18T03:21:19.797Z,15.81
2018-10-18T03:23:55.558Z,15.67
2018-10-18T03:26:31.604Z,15.45
2018-10-18T03:29:07.017Z,15.14
2018-10-18T03:31:42.816Z,14.79
2018-10-18T03:34:18.820Z,14.61
2018-10-18T03:36:55.463Z,14.61
2018-10-18T03:39:31.328Z,14.54
2018-10-18T03:42:07.135Z,14.43
2018-10-18T03:44:43.084Z,14.30
2018-10-18T03:47:18.597Z,14.12
2018-10-18T03:49:54.146Z,14.01
2018-10-18T03:52:29.575Z,14.03
2018-10-18T03:55:06.421Z,14.05
2018-10-18T03:57:42.053Z,14.15
2018-10-18T04:00:39.928Z,14.06
2018-10-18T04:03:15.454Z,13.88
2018-10-18T04:05:51.262Z,13.76
2018-10-18T04:08:26.980Z,13.89
2018-10-18T04:11:02.494Z,13.82
2018-10-18T04:13:37.997Z,13.83
2018-10-18T04:16:13.598Z,13.84
2018-10-18T04:18:49.193Z,13.69
2018-10-18T04:21:24.814Z,13.51
2018-10-18T04:24:00.455Z,13.51
2018-10-18T04:26:36.332Z,13.46
2018-10-18T04:29:11.954Z,13.42
2018-10-18T04:31:47.556Z,13.31
2018-10-18T04:34:23.326Z,13.30
2018-10-18T04:36:59.362Z,13.25
2018-10-18T04:39:35.140Z,13.24
2018-10-18T04:42:10.563Z,13.14
2018-10-18T04:44:46.389Z,13.16
2018-10-18T04:47:21.961Z,13.21
2018-10-18T04:49:57.816Z,13.25
2018-10-18T04:52:33.252Z,13.19
2018-10-18T04:55:08.918Z,13.17
2018-10-18T04:57:47.882Z,13.03
2018-10-18T05:00:33.253Z,13.07
2018-10-18T05:03:08.623Z,13.00
2018-10-18T05:05:56.936Z,12.98
2018-10-18T05:08:32.620Z,12.99
2018-10-18T05:11:08.139Z,12.95
2018-10-18T05:13:43.930Z,12.87
2018-10-18T05:16:19.424Z,12.87
2018-10-18T05:18:55.095Z,12.86
2018-10-18T05:21:31.148Z,12.96
2018-10-18T05:24:06.954Z,12.93
2018-10-18T05:26:42.856Z,12.87
2018-10-18T05:29:18.351Z,12.83
2018-10-18T05:31:53.829Z,12.80
2018-10-18T05:34:29.409Z,12.74
2018-10-18T05:37:05.076Z,12.76
2018-10-18T05:39:40.767Z,12.71
2018-10-18T05:42:16.497Z,12.74
2018-10-18T05:44:52.472Z,12.76
2018-10-18T05:47:28.031Z,12.90
2018-10-18T05:50:03.816Z,12.90
2018-10-18T05:52:39.978Z,12.87
2018-10-18T05:58:06.368Z,12.77
2018-10-18T06:00:42.173Z,12.73
2018-10-18T06:03:17.972Z,12.72
2018-10-18T06:05:53.749Z,12.67
2018-10-18T06:08:29.572Z,12.72
2018-10-18T06:11:16.230Z,12.70
2018-10-18T06:13:52.404Z,12.67
2018-10-18T06:16:28.519Z,12.64
2018-10-18T06:19:04.025Z,12.63
2018-10-18T06:21:39.857Z,12.67
2018-10-18T06:24:15.627Z,12.69
2018-10-18T06:26:51.076Z,12.66
2018-10-18T06:29:26.906Z,12.67
2018-10-18T06:32:02.752Z,12.70
2018-10-18T06:34:39.213Z,12.66
2018-10-18T06:37:14.740Z,12.73
2018-10-18T06:39:50.518Z,12.77
2018-10-18T06:42:26.467Z,12.84
2018-10-18T06:45:02.138Z,12.90
2018-10-18T06:47:37.995Z,12.90
2018-10-18T06:53:01.149Z,12.84
2018-10-18T06:55:52.788Z,12.76
2018-10-18T06:58:28.422Z,12.75
2018-10-18T07:01:04.336Z,12.74
2018-10-18T07:03:39.912Z,12.74
2018-10-18T07:06:15.568Z,12.82
2018-10-18T07:08:51.706Z,12.92
2018-10-18T07:11:27.478Z,12.94
2018-10-18T07:14:03.198Z,12.94
2018-10-18T07:16:38.938Z,12.95
2018-10-18T07:19:14.625Z,12.99
2018-10-18T07:21:50.113Z,12.99
2018-10-18T07:24:25.895Z,13.01
2018-10-18T07:27:02.021Z,13.07
2018-10-18T07:29:37.988Z,13.07
2018-10-18T07:32:13.881Z,13.16
2018-10-18T07:34:49.648Z,13.20
2018-10-18T07:37:25.866Z,13.24
2018-10-18T07:40:01.628Z,13.34
2018-10-18T07:42:37.355Z,13.44
2018-10-18T07:45:15.804Z,13.53
2018-10-18T07:48:01.676Z,13.61
2018-10-18T07:50:39.778Z,13.69
2018-10-18T07:53:15.781Z,13.91
2018-10-18T07:55:51.616Z,14.02
2018-10-18T07:58:27.448Z,14.11
2018-10-18T08:01:02.956Z,14.15
2018-10-18T08:03:38.761Z,14.25
2018-10-18T08:09:52.423Z,14.81
2018-10-18T08:12:28.768Z,14.91
2018-10-18T08:15:05.704Z,12.99
2018-10-18T08:17:41.962Z,15.19
2018-10-18T08:23:19.519Z,16.01
2018-10-18T08:25:55.083Z,16.15
2018-10-18T08:28:30.824Z,15.81
2018-10-18T08:31:06.503Z,15.62
2018-10-18T08:33:42.241Z,15.90
2018-10-18T08:36:18.004Z,16.18
2018-10-18T08:38:53.456Z,16.08
2018-10-18T08:41:29.144Z,15.88
2018-10-18T08:44:05.110Z,16.18
2018-10-18T08:46:40.944Z,16.57
2018-10-18T08:49:16.494Z,16.38
2018-10-18T08:51:52.344Z,16.64
2018-10-18T08:54:28.147Z,16.72
2018-10-18T08:57:04.029Z,16.75
2018-10-18T08:59:39.639Z,17.16
2018-10-18T09:02:15.245Z,17.44
2018-10-18T09:04:50.690Z,17.76
2018-10-18T09:07:26.332Z,18.10
2018-10-18T09:10:02.073Z,19.14
2018-10-18T09:12:37.928Z,19.03
2018-10-18T09:15:13.985Z,20.09
2018-10-18T09:17:56.154Z,21.70
2018-10-18T09:20:38.222Z,21.91
2018-10-18T09:23:13.628Z,21.68
2018-10-18T09:25:49.112Z,21.55
2018-10-18T09:28:24.684Z,21.35
2018-10-18T09:31:00.312Z,21.67
2018-10-18T09:33:36.034Z,22.01
2018-10-18T09:36:11.562Z,23.08
2018-10-18T09:38:47.044Z,23.14
2018-10-18T09:41:22.986Z,24.16
2018-10-18T09:43:58.737Z,26.12
2018-10-18T09:46:35.300Z,28.85
2018-10-18T09:49:10.850Z,31.13
2018-10-18T09:51:46.724Z,33.10
2018-10-18T09:54:22.356Z,34.76
2018-10-18T09:56:57.928Z,35.34
2018-10-18T09:59:33.385Z,34.87
2018-10-18T10:02:14.188Z,35.88
2018-10-18T10:04:49.789Z,36.39
2018-10-18T10:07:25.251Z,36.11
2018-10-18T10:10:00.893Z,35.96
2018-10-18T10:12:36.591Z,34.99
2018-10-18T10:15:12.147Z,33.87
2018-10-18T10:17:53.155Z,32.88
2018-10-18T10:20:31.140Z,32.05
2018-10-18T10:23:17.945Z,33.98
2018-10-18T10:25:53.720Z,31.51
2018-10-18T10:28:29.552Z,31.71
2018-10-18T10:31:07.359Z,33.42
2018-10-18T10:33:43.190Z,34.85
2018-10-18T10:36:18.823Z,33.92
2018-10-18T10:38:54.427Z,30.27
2018-10-18T10:41:30.152Z,28.95
2018-10-18T10:44:08.674Z,27.86
2018-10-18T10:46:44.388Z,25.08
2018-10-18T10:49:20.183Z,25.08
2018-10-18T10:51:56.031Z,25.11
2018-10-18T10:54:31.986Z,25.21
2018-10-18T10:57:07.825Z,25.56
2018-10-18T10:59:43.681Z,24.85
2018-10-18T11:02:19.176Z,25.36
2018-10-18T11:04:54.713Z,25.92
2018-10-18T11:07:30.374Z,24.87
2018-10-18T11:10:06.852Z,25.33
2018-10-18T11:12:42.539Z,24.53
2018-10-18T11:15:30.224Z,23.54
2018-10-18T11:18:06.425Z,23.43
2018-10-18T11:20:42.273Z,22.64
2018-10-18T11:23:18.065Z,23.28
2018-10-18T11:25:58.590Z,24.21
2018-10-18T11:28:34.528Z,24.14
2018-10-18T11:31:10.109Z,23.50
2018-10-18T11:33:46.414Z,23.33
2018-10-18T11:36:21.917Z,23.39
2018-10-18T11:38:57.660Z,23.23
2018-10-18T11:41:33.246Z,24.32
2018-10-18T11:44:08.897Z,24.66
2018-10-18T11:46:44.855Z,24.85
2018-10-18T11:49:20.609Z,24.82
2018-10-18T11:51:56.304Z,25.38
2018-10-18T11:54:32.064Z,25.93
2018-10-18T11:57:07.936Z,25.56
2018-10-18T11:59:43.726Z,24.82
2018-10-18T12:02:19.431Z,25.48
2018-10-18T12:04:55.445Z,25.66
2018-10-18T12:07:31.160Z,25.71
2018-10-18T12:10:08.089Z,26.66
2018-10-18T12:12:43.647Z,27.25
2018-10-18T12:15:31.802Z,27.17
2018-10-18T12:18:07.355Z,27.35
2018-10-18T12:20:43.051Z,27.22
2018-10-18T12:23:18.629Z,27.68
2018-10-18T12:25:54.693Z,27.79
2018-10-18T12:28:30.721Z,27.09
2018-10-18T12:31:06.685Z,26.14
2018-10-18T12:33:42.529Z,25.83
2018-10-18T12:36:18.447Z,25.64
2018-10-18T12:38:54.178Z,26.14
2018-10-18T12:41:29.773Z,27.22
2018-10-18T12:44:05.575Z,27.67
2018-10-18T12:46:41.310Z,27.26
2018-10-18T12:49:17.001Z,26.01
2018-10-18T12:51:52.713Z,26.57
2018-10-18T12:54:28.517Z,26.84
2018-10-18T12:57:04.324Z,26.71
2018-10-18T12:59:40.324Z,26.89
2018-10-18T13:02:16.148Z,26.99
2018-10-18T13:04:51.961Z,27.15
2018-10-18T13:07:27.561Z,26.00
2018-10-18T13:10:03.406Z,25.65
2018-10-18T13:12:39.448Z,25.57
2018-10-18T13:15:15.032Z,25.19
2018-10-18T13:17:56.515Z,24.27
2018-10-18T13:20:34.550Z,25.27
2018-10-18T13:23:24.845Z,25.64
2018-10-18T13:26:00.690Z,25.90
2018-10-18T13:28:36.688Z,25.07
2018-10-18T13:31:12.151Z,25.56
2018-10-18T13:33:47.785Z,26.25
2018-10-18T13:36:23.503Z,26.21
2018-10-18T13:38:59.436Z,25.52
2018-10-18T13:41:35.566Z,25.39
2018-10-18T13:44:11.395Z,25.13
2018-10-18T13:46:46.980Z,25.55
2018-10-18T13:49:22.865Z,25.53
2018-10-18T13:51:58.750Z,25.58
2018-10-18T13:54:34.491Z,25.62
2018-10-18T13:57:09.961Z,25.49
2018-10-18T13:59:56.819Z,26.04
2018-10-18T14:02:32.564Z,26.20
2018-10-18T14:05:08.923Z,26.02
2018-10-18T14:07:52.294Z,26.35
2018-10-18T14:10:34.991Z,25.90
2018-10-18T14:13:10.575Z,24.98
2018-10-18T14:15:46.355Z,24.16
2018-10-18T14:18:22.279Z,23.86
2018-10-18T14:20:57.853Z,23.92
2018-10-18T14:23:33.455Z,24.63
2018-10-18T14:26:09.269Z,23.99
2018-10-18T14:28:44.990Z,23.36
2018-10-18T14:31:20.864Z,23.26
2018-10-18T14:33:56.590Z,23.44
2018-10-18T14:36:32.351Z,23.23
2018-10-18T14:39:09.356Z,23.51
2018-10-18T14:41:45.093Z,23.89
2018-10-18T14:44:20.811Z,23.65
2018-10-18T14:46:56.932Z,23.74
2018-10-18T14:49:33.233Z,23.82
2018-10-18T14:52:08.779Z,24.03
2018-10-18T14:54:44.912Z,24.00
2018-10-18T14:57:20.745Z,23.99
2018-10-18T14:59:56.564Z,24.00
2018-10-18T15:02:32.089Z,24.07
2018-10-18T15:05:09.447Z,23.85
2018-10-18T15:07:50.703Z,23.67
2018-10-18T15:10:39.492Z,23.16
2018-10-18T15:13:15.116Z,22.65
2018-10-18T15:15:51.339Z,22.46
2018-10-18T15:18:26.990Z,22.58
2018-10-18T15:21:02.979Z,22.77
2018-10-18T15:23:38.919Z,22.91
2018-10-18T15:26:14.646Z,22.86
2018-10-18T15:28:50.337Z,23.10
2018-10-18T15:31:26.079Z,23.21
2018-10-18T15:34:01.648Z,22.95
2018-10-18T15:36:37.413Z,22.64
2018-10-18T15:39:13.554Z,22.89
2018-10-18T15:41:49.505Z,23.12
2018-10-18T15:44:25.300Z,23.24
2018-10-18T15:47:01.064Z,23.29
2018-10-18T15:49:36.828Z,22.39
2018-10-18T15:52:12.393Z,21.43
2018-10-18T15:54:48.327Z,20.05
2018-10-18T15:57:24.228Z,19.61
2018-10-18T15:59:59.807Z,19.65
2018-10-18T16:02:35.712Z,20.10
2018-10-18T16:05:11.601Z,20.44
2018-10-18T16:07:53.175Z,20.57
2018-10-18T16:10:34.908Z,21.04
2018-10-18T16:13:10.576Z,21.45
2018-10-18T16:15:49.790Z,21.66
2018-10-18T16:18:25.547Z,21.66
2018-10-18T16:21:01.236Z,21.58
2018-10-18T16:23:37.223Z,21.50
2018-10-18T16:26:13.350Z,21.40
2018-10-18T16:28:49.150Z,21.17
2018-10-18T16:31:25.274Z,20.57
2018-10-18T16:34:01.006Z,19.85
2018-10-18T16:36:36.685Z,19.26
2018-10-18T16:39:13.796Z,18.70
2018-10-18T16:41:49.673Z,18.55
2018-10-18T16:44:25.402Z,18.17
2018-10-18T16:47:01.266Z,18.21
2018-10-18T16:49:36.902Z,17.93
2018-10-18T16:52:12.463Z,18.17
2018-10-18T16:54:48.413Z,19.30
2018-10-18T16:57:24.076Z,19.92
2018-10-18T16:59:59.684Z,19.83
2018-10-18T17:02:35.588Z,19.36
2018-10-18T17:05:11.295Z,19.01
2018-10-18T17:07:53.192Z,18.62
2018-10-18T17:10:29.017Z,18.48
2018-10-18T17:13:05.484Z,18.40
2018-10-18T17:15:51.321Z,18.43
2018-10-18T17:18:26.937Z,18.41
2018-10-18T17:21:02.861Z,18.00
2018-10-18T17:23:38.813Z,18.17
2018-10-18T17:26:14.921Z,17.89
2018-10-18T17:28:50.862Z,17.83
2018-10-18T17:31:26.616Z,17.77
2018-10-18T17:34:02.207Z,17.81
2018-10-18T17:36:37.817Z,18.28
2018-10-18T17:39:13.281Z,17.97
2018-10-18T17:41:48.706Z,17.90
2018-10-18T17:44:24.281Z,17.72
2018-10-18T17:47:00.024Z,17.57
2018-10-18T17:49:35.770Z,17.42
2018-10-18T17:52:11.690Z,17.39
2018-10-18T17:54:47.779Z,17.59
2018-10-18T17:57:23.433Z,17.60
2018-10-18T17:59:59.182Z,17.18
2018-10-18T18:02:35.786Z,17.01
2018-10-18T18:05:13.736Z,16.79
2018-10-18T18:07:51.236Z,16.61
2018-10-18T18:10:27.140Z,16.25
2018-10-18T18:13:09.713Z,16.41
2018-10-18T18:15:45.221Z,16.58
2018-10-18T18:18:21.036Z,16.59
2018-10-18T18:20:56.664Z,17.05
2018-10-18T18:23:32.224Z,17.32
2018-10-18T18:26:07.849Z,17.68
2018-10-18T18:28:43.278Z,17.98
2018-10-18T18:31:18.864Z,16.68
2018-10-18T18:33:59.067Z,16.10
2018-10-18T18:36:34.447Z,15.85
2018-10-18T18:39:11.347Z,15.59
2018-10-18T18:41:47.257Z,16.57
2018-10-18T18:44:23.027Z,16.61
2018-10-18T18:46:58.946Z,16.30
2018-10-18T18:49:34.297Z,16.21
2018-10-18T18:52:10.406Z,16.34
2018-10-18T18:54:45.824Z,16.30
2018-10-18T18:57:35.709Z,16.44
2018-10-18T19:00:11.426Z,16.34
2018-10-18T19:02:52.958Z,16.13
2018-10-18T19:05:39.597Z,15.88
2018-10-18T19:08:15.066Z,15.62
2018-10-18T19:10:50.533Z,15.50
2018-10-18T19:13:26.059Z,15.41
2018-10-18T19:16:01.803Z,15.36
2018-10-18T19:18:37.356Z,15.35
2018-10-18T19:21:13.566Z,15.27
2018-10-18T19:23:49.529Z,15.17
2018-10-18T19:26:25.294Z,15.15
2018-10-18T19:29:01.233Z,15.23
2018-10-18T19:31:37.389Z,15.21
2018-10-18T19:34:12.931Z,15.20
2018-10-18T19:36:48.841Z,15.16
2018-10-18T19:39:24.313Z,15.16
2018-10-18T19:42:01.143Z,15.18
2018-10-18T19:44:37.299Z,15.24
2018-10-18T19:47:13.673Z,15.34
2018-10-18T19:49:49.067Z,15.35
2018-10-18T19:52:25.722Z,15.30
2018-10-18T19:55:02.612Z,15.23
2018-10-18T19:57:38.413Z,15.29
2018-10-18T20:00:14.121Z,15.21
2018-10-18T20:02:49.679Z,15.21
2018-10-18T20:05:25.510Z,15.19
2018-10-18T20:08:02.765Z,15.19
2018-10-18T20:10:39.344Z,15.17
2018-10-18T20:13:15.497Z,15.13
2018-10-18T20:15:51.309Z,15.11
2018-10-18T20:18:27.215Z,15.09
2018-10-18T20:21:02.970Z,15.18
2018-10-18T20:23:39.072Z,15.19
2018-10-18T20:26:15.048Z,15.25
2018-10-18T20:28:50.949Z,15.35
2018-10-18T20:31:27.033Z,15.40
2018-10-18T20:34:02.761Z,15.43
2018-10-18T20:36:38.931Z,15.43
2018-10-18T20:39:14.648Z,15.40
2018-10-18T20:41:50.997Z,15.40
2018-10-18T20:44:26.917Z,15.28
2018-10-18T20:47:03.999Z,15.18
2018-10-18T20:49:39.789Z,15.14
2018-10-18T20:52:15.299Z,15.10
2018-10-18T20:54:51.295Z,15.10
2018-10-18T21:06:45.129Z,14.99
2018-10-18T21:09:21.005Z,15.06
2018-10-18T21:11:56.750Z,15.02
2018-10-18T21:14:32.569Z,15.01
2018-10-18T21:17:08.031Z,14.99
2018-10-18T21:19:43.749Z,15.01
2018-10-18T21:22:19.632Z,14.99
2018-10-18T21:24:55.423Z,14.95
2018-10-18T21:27:31.245Z,14.91
2018-10-18T21:30:07.397Z,14.86
2018-10-18T21:32:42.815Z,14.86
2018-10-18T21:35:45.439Z,14.87
2018-10-18T21:38:21.112Z,14.96
2018-10-18T21:40:56.940Z,14.99
2018-10-18T21:43:32.572Z,15.07
2018-10-18T21:46:08.034Z,15.19
2018-10-18T21:48:43.998Z,15.57
2018-10-18T21:51:19.862Z,15.74
2018-10-18T21:53:55.324Z,15.65
2018-10-18T21:56:30.891Z,15.50
2018-10-18T21:59:06.479Z,15.40
2018-10-18T22:01:42.458Z,15.23
2018-10-18T22:04:18.543Z,15.60
2018-10-18T22:06:53.965Z,15.54
2018-10-18T22:09:29.712Z,15.32
2018-10-18T22:12:06.141Z,15.35
2018-10-18T22:14:41.835Z,15.43
2018-10-18T22:17:17.637Z,15.31
2018-10-18T22:19:53.341Z,15.25
2018-10-18T22:22:28.894Z,15.11
2018-10-18T22:25:04.845Z,15.04
2018-10-18T22:27:40.451Z,14.97
2018-10-18T22:30:16.129Z,14.96
2018-10-18T22:32:51.764Z,14.98
2018-10-18T22:35:32.512Z,14.96
2018-10-18T22:38:08.519Z,14.92
2018-10-18T22:40:54.213Z,14.87
2018-10-18T22:43:30.518Z,14.82
2018-10-18T22:46:06.575Z,14.84
2018-10-18T22:48:42.037Z,14.80
2018-10-18T22:51:17.450Z,14.80
2018-10-18T22:53:53.848Z,14.79
2018-10-18T22:56:29.501Z,14.76
2018-10-18T22:59:05.681Z,14.78
2018-10-18T23:01:41.348Z,14.73
2018-10-18T23:04:17.116Z,14.66
2018-10-18T23:06:52.646Z,14.60
2018-10-18T23:09:28.189Z,14.49
2018-10-18T23:12:03.756Z,14.46
2018-10-18T23:14:39.105Z,14.44
2018-10-18T23:17:14.589Z,14.46
2018-10-18T23:19:50.236Z,14.38
2018-10-18T23:22:25.765Z,14.36
2018-10-18T23:25:01.909Z,14.37
2018-10-18T23:27:37.429Z,14.42
2018-10-18T23:30:15.573Z,14.45
2018-10-18T23:33:03.297Z,14.41
2018-10-18T23:35:45.011Z,14.38
2018-10-18T23:38:20.649Z,14.45
2018-10-18T23:40:56.406Z,14.49
2018-10-18T23:43:31.873Z,14.55
2018-10-18T23:46:07.445Z,14.55
2018-10-18T23:48:43.745Z,14.55
2018-10-18T23:51:19.401Z,14.52
2018-10-18T23:53:54.892Z,14.52
2018-10-18T23:56:30.514Z,14.49
2018-10-18T23:59:07.208Z,14.43
